Terminal Aerodrome Forecast
Issued by NWS

Home | Current Version | Previous Version | Text Only | Print | Product List | Glossary Off
Versions: 1 2 3 4 5 6 7 8 9 10 11 12 13 14 15 16 17 18 19

000
FTUS43 KGRB 270301 AAA
TAFRHI
TAF AMD
KRHI 270301Z 2703/2724 19004KT P6SM SCT040 SCT070
      TEMPO 2703/2705 1 1/2SM BR
     FM270500 21004KT 4SM BR SCT040
      TEMPO 2708/2712 1SM BR BKN002
     FM271300 23005KT P6SM SCT015 SCT040
     FM271600 25008KT P6SM SCT050 BKN090=

USA.gov is the U.S. government's official web portal to all federal, state and local government web resources and services.